sensor_id;sensor_type;location;lat;lon;timestamp;pressure;altitude;pressure_sealevel;temperature;humidity
6425;BME280;12193;42.642;23.384;2023-04-23T00:00:34;94383.16;;;7.98;100.00
6425;BME280;12193;42.642;23.384;2023-04-23T00:03:07;94386.56;;;7.99;100.00
6425;BME280;12193;42.642;23.384;2023-04-23T00:05:38;94368.81;;;7.96;100.00
6425;BME280;12193;42.642;23.384;2023-04-23T03:08:49;94412.06;;;6.39;100.00
6425;BME280;12193;42.642;23.384;2023-04-23T03:11:19;94402.09;;;6.36;100.00
6425;BME280;12193;42.642;23.384;2023-04-23T03:13:48;94412.59;;;6.35;100.00
6425;BME280;12193;42.642;23.384;2023-04-23T03:16:18;94405.81;;;6.48;100.00
6425;BME280;12193;42.642;23.384;2023-04-23T03:18:47;94403.78;;;6.29;100.00
6425;BME280;12193;42.642;23.384;2023-04-23T03:21:17;94381.25;;;6.09;100.00
6425;BME280;12193;42.642;23.384;2023-04-23T03:23:49;94413.63;;;6.12;100.00
6425;BME280;12193;42.642;23.384;2023-04-23T03:26:18;94411.41;;;6.09;100.00
6425;BME280;12193;42.642;23.384;2023-04-23T03:28:47;94412.38;;;6.08;100.00
6425;BME280;12193;42.642;23.384;2023-04-23T03:31:17;94416.84;;;6.14;100.00
6425;BME280;12193;42.642;23.384;2023-04-23T03:33:46;94410.63;;;6.08;100.00
6425;BME280;12193;42.642;23.384;2023-04-23T03:36:15;94420.09;;;5.93;100.00
6425;BME280;12193;42.642;23.384;2023-04-23T03:38:44;94421.50;;;5.81;100.00
6425;BME280;12193;42.642;23.384;2023-04-23T03:41:17;94420.72;;;5.95;100.00
6425;BME280;12193;42.642;23.384;2023-04-23T03:43:46;94420.72;;;5.95;100.00
6425;BME280;12193;42.642;23.384;2023-04-23T03:46:15;94427.00;;;5.78;100.00
6425;BME280;12193;42.642;23.384;2023-04-23T03:48:45;94421.16;;;5.84;100.00
6425;BME280;12193;42.642;23.384;2023-04-23T03:51:14;94426.84;;;5.94;100.00
6425;BME280;12193;42.642;23.384;2023-04-23T03:53:44;94432.19;;;5.93;100.00
6425;BME280;12193;42.642;23.384;2023-04-23T03:56:16;94426.41;;;5.91;100.00
6425;BME280;12193;42.642;23.384;2023-04-23T03:58:46;94428.53;;;5.87;100.00
6425;BME280;12193;42.642;23.384;2023-04-23T04:01:15;94431.16;;;5.79;100.00
6425;BME280;12193;42.642;23.384;2023-04-23T04:03:45;94443.44;;;5.77;100.00
6425;BME280;12193;42.642;23.384;2023-04-23T04:06:14;94436.09;;;5.89;100.00
6425;BME280;12193;42.642;23.384;2023-04-23T04:08:43;94440.03;;;5.99;100.00
6425;BME280;12193;42.642;23.384;2023-04-23T04:11:15;94441.19;;;5.97;100.00
6425;BME280;12193;42.642;23.384;2023-04-23T04:13:46;94432.13;;;6.01;100.00
6425;BME280;12193;42.642;23.384;2023-04-23T04:16:15;94440.66;;;6.01;100.00
6425;BME280;12193;42.642;23.384;2023-04-23T04:18:44;94443.63;;;6.13;100.00
6425;BME280;12193;42.642;23.384;2023-04-23T04:21:14;94437.66;;;6.26;100.00
6425;BME280;12193;42.642;23.384;2023-04-23T04:23:44;94450.59;;;6.41;100.00
6425;BME280;12193;42.642;23.384;2023-04-23T04:26:16;94442.44;;;6.52;100.00
6425;BME280;12193;42.642;23.384;2023-04-23T04:28:46;94441.63;;;6.51;100.00
6425;BME280;12193;42.642;23.384;2023-04-23T04:31:16;94455.78;;;6.55;100.00
6425;BME280;12193;42.642;23.384;2023-04-23T04:33:47;94444.91;;;6.74;100.00
6425;BME280;12193;42.642;23.384;2023-04-23T04:36:16;94447.84;;;6.57;100.00
6425;BME280;12193;42.642;23.384;2023-04-23T04:38:46;94451.25;;;6.57;100.00
6425;BME280;12193;42.642;23.384;2023-04-23T04:41:19;94452.03;;;6.87;100.00
6425;BME280;12193;42.642;23.384;2023-04-23T04:43:51;94454.16;;;6.83;100.00
6425;BME280;12193;42.642;23.384;2023-04-23T04:46:20;94456.44;;;7.21;100.00
6425;BME280;12193;42.642;23.384;2023-04-23T04:48:52;94455.69;;;7.42;100.00
6425;BME280;12193;42.642;23.384;2023-04-23T04:51:22;94463.34;;;7.35;100.00
6425;BME280;12193;42.642;23.384;2023-04-23T04:53:52;94455.38;;;7.51;100.00
6425;BME280;12193;42.642;23.384;2023-04-23T04:56:24;94466.31;;;7.32;100.00
6425;BME280;12193;42.642;23.384;2023-04-23T04:58:54;94458.06;;;7.79;100.00
6425;BME280;12193;42.642;23.384;2023-04-23T05:01:23;94458.38;;;8.38;100.00
6425;BME280;12193;42.642;23.384;2023-04-23T05:03:52;94464.63;;;8.50;100.00
6425;BME280;12193;42.642;23.384;2023-04-23T05:06:22;94467.81;;;8.80;100.00
6425;BME280;12193;42.642;23.384;2023-04-23T05:08:54;94472.03;;;9.21;100.00
6425;BME280;12193;42.642;23.384;2023-04-23T05:11:25;94465.25;;;9.86;100.00
6425;BME280;12193;42.642;23.384;2023-04-23T05:13:55;94465.69;;;9.96;100.00
6425;BME280;12193;42.642;23.384;2023-04-23T05:16:24;94463.75;;;10.37;100.00
6425;BME280;12193;42.642;23.384;2023-04-23T05:18:54;94468.69;;;10.77;100.00
6425;BME280;12193;42.642;23.384;2023-04-23T05:21:23;94472.44;;;11.14;100.00
6425;BME280;12193;42.642;23.384;2023-04-23T05:23:52;94466.72;;;10.47;100.00
6425;BME280;12193;42.642;23.384;2023-04-23T05:26:25;94463.09;;;10.80;100.00
6425;BME280;12193;42.642;23.384;2023-04-23T05:28:54;94467.78;;;11.22;99.38
6425;BME280;12193;42.642;23.384;2023-04-23T05:31:24;94451.94;;;10.47;100.00
6425;BME280;12193;42.642;23.384;2023-04-23T05:33:53;94461.72;;;10.13;100.00
6425;BME280;12193;42.642;23.384;2023-04-23T05:36:22;94466.09;;;10.00;100.00
6425;BME280;12193;42.642;23.384;2023-04-23T05:38:52;94464.91;;;10.02;100.00
6425;BME280;12193;42.642;23.384;2023-04-23T05:41:22;94466.72;;;10.02;100.00
6425;BME280;12193;42.642;23.384;2023-04-23T05:43:54;94467.50;;;10.80;100.00
6425;BME280;12193;42.642;23.384;2023-04-23T05:46:24;94476.94;;;11.44;100.00
6425;BME280;12193;42.642;23.384;2023-04-23T05:48:53;94477.09;;;10.86;100.00
6425;BME280;12193;42.642;23.384;2023-04-23T05:51:22;94474.47;;;10.99;100.00
6425;BME280;12193;42.642;23.384;2023-04-23T05:53:52;94475.06;;;11.07;100.00
6425;BME280;12193;42.642;23.384;2023-04-23T05:56:21;94476.75;;;11.33;99.93
6425;BME280;12193;42.642;23.384;2023-04-23T05:58:53;94479.78;;;11.30;99.89
6425;BME280;12193;42.642;23.384;2023-04-23T06:01:23;94476.66;;;11.65;98.55
6425;BME280;12193;42.642;23.384;2023-04-23T06:03:53;94477.84;;;11.69;98.31
6425;BME280;12193;42.642;23.384;2023-04-23T06:06:22;94465.34;;;11.34;100.00
6425;BME280;12193;42.642;23.384;2023-04-23T06:08:51;94468.03;;;11.64;98.40
6425;BME280;12193;42.642;23.384;2023-04-23T06:11:21;94472.59;;;12.13;94.38
6425;BME280;12193;42.642;23.384;2023-04-23T06:13:50;94476.13;;;12.49;93.87
6425;BME280;12193;42.642;23.384;2023-04-23T06:16:24;94477.88;;;13.04;89.41
6425;BME280;12193;42.642;23.384;2023-04-23T06:18:54;94471.34;;;13.48;86.51
6425;BME280;12193;42.642;23.384;2023-04-23T06:21:24;94477.06;;;13.57;85.87
6425;BME280;12193;42.642;23.384;2023-04-23T06:23:54;94468.81;;;14.59;80.31
6425;BME280;12193;42.642;23.384;2023-04-23T06:26:23;94469.00;;;13.76;83.41
6425;BME280;12193;42.642;23.384;2023-04-23T06:28:53;94462.75;;;14.25;83.19
6425;BME280;12193;42.642;23.384;2023-04-23T06:31:25;94471.31;;;14.43;79.02
6425;BME280;12193;42.642;23.384;2023-04-23T06:33:54;94472.75;;;14.91;77.21
6425;BME280;12193;42.642;23.384;2023-04-23T06:36:23;94468.06;;;14.18;81.48
6425;BME280;12193;42.642;23.384;2023-04-23T06:38:53;94475.94;;;13.35;86.15
6425;BME280;12193;42.642;23.384;2023-04-23T06:41:22;94477.59;;;13.30;87.87
6425;BME280;12193;42.642;23.384;2023-04-23T06:43:51;94462.28;;;13.69;84.86
6425;BME280;12193;42.642;23.384;2023-04-23T06:46:24;94462.91;;;14.41;82.11
6425;BME280;12193;42.642;23.384;2023-04-23T06:48:53;94465.44;;;15.16;79.02
6425;BME280;12193;42.642;23.384;2023-04-23T06:51:24;94452.84;;;14.27;83.11
6425;BME280;12193;42.642;23.384;2023-04-23T06:53:54;94463.06;;;16.05;74.88
6425;BME280;12193;42.642;23.384;2023-04-23T06:56:23;94462.41;;;15.70;75.43
6425;BME280;12193;42.642;23.384;2023-04-23T06:58:53;94467.25;;;15.16;76.53
6425;BME280;12193;42.642;23.384;2023-04-23T07:01:25;94465.09;;;14.56;81.70
6425;BME280;12193;42.642;23.384;2023-04-23T07:03:55;94463.97;;;15.32;79.24
6425;BME280;12193;42.642;23.384;2023-04-23T07:06:24;94447.84;;;15.90;75.05
6425;BME280;12193;42.642;23.384;2023-04-23T07:08:53;94458.81;;;15.25;76.78
6425;BME280;12193;42.642;23.384;2023-04-23T07:11:23;94466.13;;;15.00;79.88
6425;BME280;12193;42.642;23.384;2023-04-23T07:13:52;94462.03;;;15.27;77.19
6425;BME280;12193;42.642;23.384;2023-04-23T07:16:21;94466.16;;;16.30;71.82
6425;BME280;12193;42.642;23.384;2023-04-23T07:18:53;94459.28;;;15.45;77.40
6425;BME280;12193;42.642;23.384;2023-04-23T07:21:23;94456.06;;;15.94;74.69
6425;BME280;12193;42.642;23.384;2023-04-23T07:23:52;94457.41;;;16.24;72.04
6425;BME280;12193;42.642;23.384;2023-04-23T07:26:22;94455.53;;;17.18;70.20
6425;BME280;12193;42.642;23.384;2023-04-23T07:28:52;94456.09;;;16.10;70.76
6425;BME280;12193;42.642;23.384;2023-04-23T07:31:22;94455.31;;;16.38;69.82
6425;BME280;12193;42.642;23.384;2023-04-23T07:33:54;94456.84;;;15.94;73.20
6425;BME280;12193;42.642;23.384;2023-04-23T07:36:24;94449.66;;;16.95;68.85
6425;BME280;12193;42.642;23.384;2023-04-23T07:38:53;94455.94;;;17.10;67.34
6425;BME280;12193;42.642;23.384;2023-04-23T07:41:22;94454.94;;;16.62;68.57
6425;BME280;12193;42.642;23.384;2023-04-23T07:43:52;94455.78;;;15.79;70.85
6425;BME280;12193;42.642;23.384;2023-04-23T07:46:22;94449.63;;;14.77;75.79
6425;BME280;12193;42.642;23.384;2023-04-23T07:48:54;94453.50;;;14.74;77.73
6425;BME280;12193;42.642;23.384;2023-04-23T07:51:23;94450.34;;;15.69;75.39
6425;BME280;12193;42.642;23.384;2023-04-23T07:53:53;94453.59;;;14.79;77.92
6425;BME280;12193;42.642;23.384;2023-04-23T07:56:23;94455.38;;;15.59;73.96
6425;BME280;12193;42.642;23.384;2023-04-23T07:58:53;94456.00;;;15.38;76.22
6425;BME280;12193;42.642;23.384;2023-04-23T08:01:23;94452.25;;;15.00;77.11
6425;BME280;12193;42.642;23.384;2023-04-23T08:03:56;94453.59;;;15.25;75.57
6425;BME280;12193;42.642;23.384;2023-04-23T08:06:26;94451.44;;;15.34;74.41
6425;BME280;12193;42.642;23.384;2023-04-23T08:08:56;94453.91;;;15.52;73.01
6425;BME280;12193;42.642;23.384;2023-04-23T08:11:25;94454.31;;;16.71;69.01
6425;BME280;12193;42.642;23.384;2023-04-23T08:13:56;94446.13;;;18.03;61.41
6425;BME280;12193;42.642;23.384;2023-04-23T08:16:26;94447.59;;;18.20;61.72
6425;BME280;12193;42.642;23.384;2023-04-23T08:18:58;94450.59;;;17.60;62.71
6425;BME280;12193;42.642;23.384;2023-04-23T08:21:30;94447.03;;;17.11;63.83
6425;BME280;12193;42.642;23.384;2023-04-23T08:23:59;94443.38;;;18.19;60.97
6425;BME280;12193;42.642;23.384;2023-04-23T08:26:29;94448.59;;;18.14;60.03
6425;BME280;12193;42.642;23.384;2023-04-23T08:28:58;94444.56;;;17.21;61.87
6425;BME280;12193;42.642;23.384;2023-04-23T08:31:28;94439.81;;;16.36;67.03
6425;BME280;12193;42.642;23.384;2023-04-23T08:34:00;94434.63;;;15.97;67.96
6425;BME280;12193;42.642;23.384;2023-04-23T08:36:30;94433.81;;;17.06;64.49
6425;BME280;12193;42.642;23.384;2023-04-23T08:38:59;94430.13;;;16.37;67.59
6425;BME280;12193;42.642;23.384;2023-04-23T08:41:33;94434.00;;;16.83;63.46
6425;BME280;12193;42.642;23.384;2023-04-23T08:44:08;94425.94;;;18.35;58.32
6425;BME280;12193;42.642;23.384;2023-04-23T08:46:42;94423.00;;;18.94;53.94
6425;BME280;12193;42.642;23.384;2023-04-23T08:49:16;94420.72;;;18.13;57.02
6425;BME280;12193;42.642;23.384;2023-04-23T08:51:48;94428.13;;;18.21;56.52
6425;BME280;12193;42.642;23.384;2023-04-23T08:54:21;94419.63;;;20.01;50.17
6425;BME280;12193;42.642;23.384;2023-04-23T08:56:55;94416.53;;;19.63;49.35
6425;BME280;12193;42.642;23.384;2023-04-23T08:59:27;94416.13;;;18.04;53.16
6425;BME280;12193;42.642;23.384;2023-04-23T09:01:58;94413.88;;;18.17;54.86
6425;BME280;12193;42.642;23.384;2023-04-23T09:04:35;94418.19;;;17.33;57.76
6425;BME280;12193;42.642;23.384;2023-04-23T09:07:05;94413.91;;;18.44;54.15
6425;BME280;12193;42.642;23.384;2023-04-23T09:09:36;94409.88;;;18.36;52.90
6425;BME280;12193;42.642;23.384;2023-04-23T09:12:08;94423.03;;;17.24;56.13
6425;BME280;12193;42.642;23.384;2023-04-23T09:14:37;94406.69;;;18.66;52.61
6425;BME280;12193;42.642;23.384;2023-04-23T09:17:06;94406.63;;;19.23;50.34
6425;BME280;12193;42.642;23.384;2023-04-23T09:19:38;94400.22;;;19.14;52.51
6425;BME280;12193;42.642;23.384;2023-04-23T09:22:08;94400.00;;;19.21;52.02
6425;BME280;12193;42.642;23.384;2023-04-23T09:24:40;94396.75;;;19.55;50.89
6425;BME280;12193;42.642;23.384;2023-04-23T09:27:10;94390.34;;;20.22;47.25
6425;BME280;12193;42.642;23.384;2023-04-23T09:29:43;94401.06;;;19.81;47.32
6425;BME280;12193;42.642;23.384;2023-04-23T09:32:14;94392.94;;;18.54;51.06
6425;BME280;12193;42.642;23.384;2023-04-23T09:34:55;94403.72;;;18.26;52.26
6425;BME280;12193;42.642;23.384;2023-04-23T09:37:25;94388.75;;;18.05;52.99
6425;BME280;12193;42.642;23.384;2023-04-23T09:39:57;94384.03;;;17.54;54.54
6425;BME280;12193;42.642;23.384;2023-04-23T09:42:27;94377.63;;;18.51;52.70
6425;BME280;12193;42.642;23.384;2023-04-23T09:44:57;94378.28;;;19.09;50.38
6425;BME280;12193;42.642;23.384;2023-04-23T09:47:31;94372.63;;;19.27;49.17
6425;BME280;12193;42.642;23.384;2023-04-23T09:50:03;94370.00;;;20.13;46.93
6425;BME280;12193;42.642;23.384;2023-04-23T09:52:38;94372.34;;;19.94;46.18
6425;BME280;12193;42.642;23.384;2023-04-23T09:55:08;94358.28;;;19.74;47.58
6425;BME280;12193;42.642;23.384;2023-04-23T09:57:40;94369.25;;;20.67;44.51
6425;BME280;12193;42.642;23.384;2023-04-23T10:00:14;94358.81;;;18.69;48.11
6425;BME280;12193;42.642;23.384;2023-04-23T10:02:48;94365.63;;;19.06;46.14
6425;BME280;12193;42.642;23.384;2023-04-23T10:05:21;94357.63;;;20.78;41.72
6425;BME280;12193;42.642;23.384;2023-04-23T10:07:52;94353.84;;;21.24;41.08
6425;BME280;12193;42.642;23.384;2023-04-23T10:10:21;94360.69;;;19.86;42.27
6425;BME280;12193;42.642;23.384;2023-04-23T10:12:52;94347.88;;;20.44;41.26
6425;BME280;12193;42.642;23.384;2023-04-23T10:15:22;94344.94;;;21.73;39.15
6425;BME280;12193;42.642;23.384;2023-04-23T10:17:53;94345.28;;;22.48;38.79
6425;BME280;12193;42.642;23.384;2023-04-23T10:20:26;94347.84;;;20.79;40.40
6425;BME280;12193;42.642;23.384;2023-04-23T10:22:56;94344.72;;;20.27;40.79
6425;BME280;12193;42.642;23.384;2023-04-23T10:25:27;94339.47;;;19.46;43.01
6425;BME280;12193;42.642;23.384;2023-04-23T10:27:57;94335.88;;;21.26;39.13
6425;BME280;12193;42.642;23.384;2023-04-23T10:30:29;94330.88;;;21.19;38.95
6425;BME280;12193;42.642;23.384;2023-04-23T10:32:59;94325.88;;;21.18;39.17
6425;BME280;12193;42.642;23.384;2023-04-23T10:35:33;94321.09;;;21.83;38.65
6425;BME280;12193;42.642;23.384;2023-04-23T10:38:03;94317.59;;;21.34;38.03
6425;BME280;12193;42.642;23.384;2023-04-23T10:40:34;94314.00;;;21.05;39.44
6425;BME280;12193;42.642;23.384;2023-04-23T10:43:06;94314.72;;;21.21;38.71
6425;BME280;12193;42.642;23.384;2023-04-23T10:45:35;94313.91;;;22.27;37.13
6425;BME280;12193;42.642;23.384;2023-04-23T10:48:05;94311.41;;;20.56;39.66
6425;BME280;12193;42.642;23.384;2023-04-23T10:50:37;94302.69;;;19.90;40.04
6425;BME280;12193;42.642;23.384;2023-04-23T10:53:17;94298.69;;;19.02;41.90
6425;BME280;12193;42.642;23.384;2023-04-23T10:55:46;94298.66;;;18.97;41.93
6425;BME280;12193;42.642;23.384;2023-04-23T10:58:17;94297.94;;;20.47;39.18
6425;BME280;12193;42.642;23.384;2023-04-23T11:00:47;94291.84;;;20.77;38.71
6425;BME280;12193;42.642;23.384;2023-04-23T11:03:28;94290.78;;;19.93;41.37
6425;BME280;12193;42.642;23.384;2023-04-23T11:06:03;94296.22;;;18.81;43.37
6425;BME280;12193;42.642;23.384;2023-04-23T11:08:34;94294.25;;;20.58;39.81
6425;BME280;12193;42.642;23.384;2023-04-23T11:11:07;94294.78;;;20.20;40.03
6425;BME280;12193;42.642;23.384;2023-04-23T11:13:50;94277.38;;;21.32;38.95
6425;BME280;12193;42.642;23.384;2023-04-23T11:16:21;94275.13;;;22.07;36.56
6425;BME280;12193;42.642;23.384;2023-04-23T11:18:55;94278.38;;;20.63;37.94
6425;BME280;12193;42.642;23.384;2023-04-23T11:24:26;94262.91;;;21.73;35.70
6425;BME280;12193;42.642;23.384;2023-04-23T11:26:56;94269.78;;;21.74;35.13
6425;BME280;12193;42.642;23.384;2023-04-23T11:29:27;94264.06;;;22.91;32.60
6425;BME280;12193;42.642;23.384;2023-04-23T11:31:56;94247.31;;;22.95;33.22
6425;BME280;12193;42.642;23.384;2023-04-23T11:34:25;94247.81;;;22.97;32.71
6425;BME280;12193;42.642;23.384;2023-04-23T11:36:58;94248.03;;;21.39;33.60
6425;BME280;12193;42.642;23.384;2023-04-23T11:39:30;94253.03;;;21.89;32.29
6425;BME280;12193;42.642;23.384;2023-04-23T11:42:00;94243.50;;;21.39;33.05
6425;BME280;12193;42.642;23.384;2023-04-23T11:44:31;94248.44;;;21.99;32.75
6425;BME280;12193;42.642;23.384;2023-04-23T11:47:01;94234.94;;;22.01;32.69
6425;BME280;12193;42.642;23.384;2023-04-23T11:49:30;94240.97;;;23.56;29.54
6425;BME280;12193;42.642;23.384;2023-04-23T11:51:59;94233.25;;;22.71;30.44
6425;BME280;12193;42.642;23.384;2023-04-23T11:54:32;94238.47;;;20.75;32.79
6425;BME280;12193;42.642;23.384;2023-04-23T11:57:02;94229.69;;;21.52;31.44
6425;BME280;12193;42.642;23.384;2023-04-23T11:59:32;94227.50;;;22.88;29.37
6425;BME280;12193;42.642;23.384;2023-04-23T12:02:01;94219.56;;;22.02;30.59
6425;BME280;12193;42.642;23.384;2023-04-23T12:04:31;94218.91;;;22.49;29.44
6425;BME280;12193;42.642;23.384;2023-04-23T12:07:01;94221.38;;;21.74;30.21
6425;BME280;12193;42.642;23.384;2023-04-23T12:09:33;94210.03;;;21.20;29.84
6425;BME280;12193;42.642;23.384;2023-04-23T12:12:03;94220.72;;;20.95;30.10
6425;BME280;12193;42.642;23.384;2023-04-23T12:14:33;94214.69;;;20.85;30.18
6425;BME280;12193;42.642;23.384;2023-04-23T12:17:09;94216.38;;;20.36;30.43
6425;BME280;12193;42.642;23.384;2023-04-23T12:19:38;94203.88;;;20.66;30.67
6425;BME280;12193;42.642;23.384;2023-04-23T12:22:09;94214.84;;;20.00;30.86
6425;BME280;12193;42.642;23.384;2023-04-23T12:24:49;94209.53;;;19.65;32.40
6425;BME280;12193;42.642;23.384;2023-04-23T12:27:20;94211.34;;;18.64;34.91
6425;BME280;12193;42.642;23.384;2023-04-23T12:29:58;94205.31;;;18.78;34.53
6425;BME280;12193;42.642;23.384;2023-04-23T12:32:27;94202.41;;;18.23;35.66
6425;BME280;12193;42.642;23.384;2023-04-23T12:34:57;94206.22;;;17.38;36.41
6425;BME280;12193;42.642;23.384;2023-04-23T12:37:29;94200.47;;;17.41;36.11
6425;BME280;12193;42.642;23.384;2023-04-23T12:40:01;94187.50;;;17.66;35.47
6425;BME280;12193;42.642;23.384;2023-04-23T12:42:33;94198.50;;;17.89;35.43
6425;BME280;12193;42.642;23.384;2023-04-23T12:45:07;94191.63;;;18.81;35.56
6425;BME280;12193;42.642;23.384;2023-04-23T12:47:37;94195.06;;;18.86;34.47
6425;BME280;12193;42.642;23.384;2023-04-23T12:50:08;94182.19;;;18.85;34.43
6425;BME280;12193;42.642;23.384;2023-04-23T12:52:37;94189.25;;;18.75;34.00
6425;BME280;12193;42.642;23.384;2023-04-23T12:55:09;94191.63;;;18.71;33.65
6425;BME280;12193;42.642;23.384;2023-04-23T12:57:38;94189.28;;;18.80;34.11
6425;BME280;12193;42.642;23.384;2023-04-23T13:00:08;94183.47;;;18.78;34.24
6425;BME280;12193;42.642;23.384;2023-04-23T13:02:38;94192.69;;;18.24;34.95
6425;BME280;12193;42.642;23.384;2023-04-23T13:05:08;94188.88;;;17.73;35.22
6425;BME280;12193;42.642;23.384;2023-04-23T13:07:38;94184.88;;;18.02;34.98
6425;BME280;12193;42.642;23.384;2023-04-23T13:10:10;94189.84;;;18.35;34.06
6425;BME280;12193;42.642;23.384;2023-04-23T13:12:39;94187.84;;;18.11;34.35
6425;BME280;12193;42.642;23.384;2023-04-23T13:15:10;94183.44;;;18.21;34.38
6425;BME280;12193;42.642;23.384;2023-04-23T13:17:40;94184.78;;;17.87;34.70
6425;BME280;12193;42.642;23.384;2023-04-23T13:20:10;94180.34;;;17.93;34.39
6425;BME280;12193;42.642;23.384;2023-04-23T13:22:39;94178.97;;;18.22;34.49
6425;BME280;12193;42.642;23.384;2023-04-23T13:25:11;94178.56;;;18.45;34.23
6425;BME280;12193;42.642;23.384;2023-04-23T13:27:40;94172.81;;;18.48;33.56
6425;BME280;12193;42.642;23.384;2023-04-23T13:30:14;94179.94;;;18.52;33.46
6425;BME280;12193;42.642;23.384;2023-04-23T13:32:44;94190.16;;;18.02;34.20
6425;BME280;12193;42.642;23.384;2023-04-23T13:35:13;94178.59;;;18.50;33.80
6425;BME280;12193;42.642;23.384;2023-04-23T13:37:43;94176.31;;;18.68;33.95
6425;BME280;12193;42.642;23.384;2023-04-23T13:40:15;94181.69;;;18.32;33.94
6425;BME280;12193;42.642;23.384;2023-04-23T13:42:45;94177.28;;;18.47;33.44
6425;BME280;12193;42.642;23.384;2023-04-23T13:45:15;94175.22;;;18.54;32.68
6425;BME280;12193;42.642;23.384;2023-04-23T13:47:45;94166.94;;;18.97;32.07
6425;BME280;12193;42.642;23.384;2023-04-23T13:50:14;94168.63;;;19.83;31.36
6425;BME280;12193;42.642;23.384;2023-04-23T13:52:44;94159.66;;;19.88;31.92
6425;BME280;12193;42.642;23.384;2023-04-23T13:55:17;94157.31;;;19.42;31.71
6425;BME280;12193;42.642;23.384;2023-04-23T13:57:46;94160.06;;;18.86;31.84
6425;BME280;12193;42.642;23.384;2023-04-23T14:00:16;94159.91;;;19.32;31.36
6425;BME280;12193;42.642;23.384;2023-04-23T14:02:45;94157.81;;;19.94;30.60
6425;BME280;12193;42.642;23.384;2023-04-23T14:05:15;94159.66;;;19.88;30.43
6425;BME280;12193;42.642;23.384;2023-04-23T14:07:45;94162.84;;;19.56;30.23
6425;BME280;12193;42.642;23.384;2023-04-23T14:10:17;94167.56;;;19.39;30.69
6425;BME280;12193;42.642;23.384;2023-04-23T14:12:46;94166.00;;;19.58;30.94
6425;BME280;12193;42.642;23.384;2023-04-23T14:15:16;94162.44;;;18.83;30.86
6425;BME280;12193;42.642;23.384;2023-04-23T14:17:46;94158.72;;;18.79;30.91
6425;BME280;12193;42.642;23.384;2023-04-23T14:20:15;94163.25;;;18.93;30.99
6425;BME280;12193;42.642;23.384;2023-04-23T14:22:48;94162.06;;;18.54;32.44
6425;BME280;12193;42.642;23.384;2023-04-23T14:25:29;94160.78;;;18.20;34.66
6425;BME280;12193;42.642;23.384;2023-04-23T14:28:01;94157.28;;;18.05;35.86
6425;BME280;12193;42.642;23.384;2023-04-23T14:30:33;94149.09;;;17.60;35.83
6425;BME280;12193;42.642;23.384;2023-04-23T14:33:03;94148.66;;;18.09;35.64
6425;BME280;12193;42.642;23.384;2023-04-23T14:35:33;94139.59;;;17.90;39.89
6425;BME280;12193;42.642;23.384;2023-04-23T14:38:02;94128.22;;;17.85;42.48
6425;BME280;12193;42.642;23.384;2023-04-23T14:40:34;94148.56;;;17.58;43.09
6425;BME280;12193;42.642;23.384;2023-04-23T14:43:03;94148.00;;;17.56;41.78
6425;BME280;12193;42.642;23.384;2023-04-23T14:45:33;94145.13;;;17.58;41.39
6425;BME280;12193;42.642;23.384;2023-04-23T14:48:02;94150.59;;;17.51;41.22
6425;BME280;12193;42.642;23.384;2023-04-23T14:50:32;94145.84;;;17.22;43.70
6425;BME280;12193;42.642;23.384;2023-04-23T14:53:01;94135.09;;;17.23;44.02
6425;BME280;12193;42.642;23.384;2023-04-23T14:55:36;94148.34;;;17.07;44.04
6425;BME280;12193;42.642;23.384;2023-04-23T14:58:08;94146.41;;;16.97;43.11
6425;BME280;12193;42.642;23.384;2023-04-23T15:00:37;94144.22;;;16.89;45.32
6425;BME280;12193;42.642;23.384;2023-04-23T15:03:07;94130.47;;;16.77;47.29
6425;BME280;12193;42.642;23.384;2023-04-23T15:05:36;94137.16;;;16.90;46.69
6425;BME280;12193;42.642;23.384;2023-04-23T15:08:05;94133.50;;;16.91;44.23
6425;BME280;12193;42.642;23.384;2023-04-23T15:10:38;94138.81;;;17.01;42.24
6425;BME280;12193;42.642;23.384;2023-04-23T15:13:08;94140.53;;;17.17;41.56
6425;BME280;12193;42.642;23.384;2023-04-23T15:15:49;94135.84;;;17.19;40.76
6425;BME280;12193;42.642;23.384;2023-04-23T15:18:18;94138.13;;;17.10;39.91
6425;BME280;12193;42.642;23.384;2023-04-23T15:20:48;94137.47;;;17.25;39.87
6425;BME280;12193;42.642;23.384;2023-04-23T15:23:17;94135.50;;;17.37;39.49
6425;BME280;12193;42.642;23.384;2023-04-23T15:25:52;94135.69;;;17.62;38.58
6425;BME280;12193;42.642;23.384;2023-04-23T15:28:21;94132.34;;;17.71;37.87
6425;BME280;12193;42.642;23.384;2023-04-23T15:30:51;94133.25;;;17.86;38.00
6425;BME280;12193;42.642;23.384;2023-04-23T15:33:20;94123.50;;;17.87;37.91
6425;BME280;12193;42.642;23.384;2023-04-23T15:35:49;94127.59;;;17.68;37.42
6425;BME280;12193;42.642;23.384;2023-04-23T15:38:19;94124.41;;;17.61;37.87
6425;BME280;12193;42.642;23.384;2023-04-23T15:40:50;94122.06;;;17.65;38.37
6425;BME280;12193;42.642;23.384;2023-04-23T15:43:21;94124.47;;;17.71;39.07
6425;BME280;12193;42.642;23.384;2023-04-23T15:45:50;94115.75;;;17.66;38.75
6425;BME280;12193;42.642;23.384;2023-04-23T15:48:24;94118.06;;;17.57;39.59
6425;BME280;12193;42.642;23.384;2023-04-23T15:50:53;94128.00;;;17.50;40.89
6425;BME280;12193;42.642;23.384;2023-04-23T15:53:22;94119.81;;;17.47;41.34
6425;BME280;12193;42.642;23.384;2023-04-23T15:55:55;94129.69;;;17.35;42.56
6425;BME280;12193;42.642;23.384;2023-04-23T15:58:24;94129.88;;;17.28;42.82
6425;BME280;12193;42.642;23.384;2023-04-23T16:00:53;94125.19;;;17.30;42.79
6425;BME280;12193;42.642;23.384;2023-04-23T16:03:22;94134.03;;;17.24;43.20
6425;BME280;12193;42.642;23.384;2023-04-23T16:05:51;94122.91;;;17.12;44.11
6425;BME280;12193;42.642;23.384;2023-04-23T16:08:21;94124.41;;;17.03;44.67
6425;BME280;12193;42.642;23.384;2023-04-23T16:10:50;94140.41;;;17.02;45.16
6425;BME280;12193;42.642;23.384;2023-04-23T16:13:23;94132.75;;;16.74;45.73
6425;BME280;12193;42.642;23.384;2023-04-23T16:15:53;94117.16;;;16.63;45.32
6425;BME280;12193;42.642;23.384;2023-04-23T16:18:23;94118.88;;;16.52;45.67
6425;BME280;12193;42.642;23.384;2023-04-23T16:20:52;94115.41;;;16.47;46.48